Weather at Doering Farms Airfield

Public forecast

Using degrees Fahrenheit for public forecast. Weather courtesy of forecast.io.

Closest aviation weather report (METAR) to Doering Farms Airfield

Closest report is Waukesha County Airport, 10.5 nm (19.5 km) SSE. Retrieved 2021/06/13 11:45 UTC (18 minutes ago):

KUES 131145Z 27006KT 10SM CLR 18/14 A3001

Closest aviation forecast (TAF) to Doering Farms Airfield

Closest forecast is Waukesha County Airport, 10.5 nm (19.5 km) SSE. Retrieved 2021/06/13 12:22 UTC (0 seconds ago):

TAF KUES 131120Z 1312/1412 33003KT P6SM SKC FM131600 33007KT P6SM SKC FM140200 22003KT P6SM FEW150 FM140800 03007KT P6SM SCT180